createdAt,value
2023-01-08T00:01:11.787Z,11.82
2023-01-08T00:03:39.017Z,10.70
2023-01-08T00:06:09.119Z,10.65
2023-01-08T00:08:36.022Z,9.23
2023-01-08T00:11:05.998Z,10.43
2023-01-08T00:13:36.010Z,10.50
2023-01-08T00:16:08.927Z,11.35
2023-01-08T00:18:36.350Z,12.07
2023-01-08T00:21:03.809Z,11.32
2023-01-08T00:23:31.076Z,11.57
2023-01-08T00:26:00.814Z,11.68
2023-01-08T00:28:27.572Z,11.43
2023-01-08T00:30:54.331Z,12.45
2023-01-08T00:33:21.226Z,12.38
2023-01-08T00:35:48.289Z,12.20
2023-01-08T00:38:20.326Z,12.00
2023-01-08T00:40:48.918Z,12.35
2023-01-08T00:43:15.775Z,12.55
2023-01-08T00:45:43.036Z,11.77
2023-01-08T00:48:11.224Z,11.80
2023-01-08T00:50:38.221Z,12.15
2023-01-08T00:53:04.950Z,11.15
2023-01-08T00:55:32.098Z,11.18
2023-01-08T00:57:58.864Z,10.10
2023-01-08T01:00:28.215Z,9.68
2023-01-08T01:02:55.055Z,9.95
2023-01-08T01:05:22.000Z,9.73
2023-01-08T01:07:48.717Z,8.27
2023-01-08T01:10:16.790Z,8.00
2023-01-08T01:12:44.358Z,8.52
2023-01-08T01:15:14.619Z,9.07
2023-01-08T01:17:45.593Z,8.18
2023-01-08T01:20:16.018Z,7.97
2023-01-08T01:22:43.447Z,7.22
2023-01-08T01:25:11.230Z,7.72
2023-01-08T01:27:38.114Z,7.88
2023-01-08T01:30:06.538Z,8.15
2023-01-08T01:32:33.646Z,8.85
2023-01-08T01:35:00.499Z,8.77
2023-01-08T01:37:30.290Z,7.90
2023-01-08T01:39:58.118Z,8.70
2023-01-08T01:42:39.945Z,7.72
2023-01-08T01:45:32.943Z,7.90
2023-01-08T01:48:15.108Z,9.15
2023-01-08T01:50:49.984Z,8.50
2023-01-08T01:53:32.874Z,10.32
2023-01-08T01:56:01.764Z,9.80
2023-01-08T01:58:30.606Z,10.82
2023-01-08T02:01:02.132Z,11.15
2023-01-08T02:03:39.175Z,12.98
2023-01-08T02:06:08.989Z,12.10
2023-01-08T02:08:35.641Z,11.65
2023-01-08T02:11:17.304Z,12.15
2023-01-08T02:13:52.191Z,10.40
2023-01-08T02:16:35.297Z,11.35
2023-01-08T02:19:13.074Z,10.00
2023-01-08T02:22:03.866Z,10.38
2023-01-08T02:24:59.964Z,8.57
2023-01-08T02:27:31.173Z,7.18
2023-01-08T02:29:58.667Z,9.70
2023-01-08T02:32:33.604Z,8.63
2023-01-08T02:35:00.387Z,10.10
2023-01-08T02:37:27.177Z,10.23
2023-01-08T02:40:19.861Z,9.52
2023-01-08T02:42:52.031Z,8.57
2023-01-08T02:45:28.210Z,8.90
2023-01-08T02:48:15.186Z,8.43
2023-01-08T02:50:53.845Z,8.48
2023-01-08T02:53:27.594Z,7.32
2023-01-08T02:56:08.762Z,8.05
2023-01-08T02:58:39.136Z,8.35
2023-01-08T03:01:10.888Z,7.15
2023-01-08T03:03:40.355Z,8.77
2023-01-08T03:06:32.620Z,8.80
2023-01-08T03:09:07.268Z,9.55
2023-01-08T03:11:48.237Z,9.05
2023-01-08T03:14:39.439Z,8.85
2023-01-08T03:17:22.053Z,8.20
2023-01-08T03:20:17.800Z,8.48
2023-01-08T03:22:51.441Z,8.80
2023-01-08T03:25:26.848Z,9.30
2023-01-08T03:28:12.405Z,9.13
2023-01-08T03:30:42.593Z,9.02
2023-01-08T03:33:12.333Z,8.48
2023-01-08T03:35:41.699Z,8.95
2023-01-08T03:38:17.522Z,9.10
2023-01-08T03:40:48.240Z,7.63
2023-01-08T03:43:15.322Z,7.00
2023-01-08T03:45:55.999Z,7.03
2023-01-08T03:48:25.425Z,6.38
2023-01-08T03:50:52.468Z,5.97
2023-01-08T03:53:19.460Z,6.93
2023-01-08T03:55:46.408Z,6.65
2023-01-08T03:58:13.737Z,6.20
2023-01-08T04:00:40.526Z,6.55
2023-01-08T04:03:07.522Z,7.70
2023-01-08T04:05:34.377Z,8.45
2023-01-08T04:08:01.267Z,9.07
2023-01-08T04:10:28.091Z,8.38
2023-01-08T04:12:54.915Z,9.75
2023-01-08T04:15:21.668Z,8.77
2023-01-08T04:17:48.779Z,7.85
2023-01-08T04:20:15.635Z,7.63
2023-01-08T04:22:42.572Z,8.80
2023-01-08T04:25:09.755Z,8.93
2023-01-08T04:27:36.711Z,9.63
2023-01-08T04:30:04.753Z,9.63
2023-01-08T04:32:31.627Z,9.77
2023-01-08T04:34:58.331Z,9.07
2023-01-08T04:37:25.097Z,9.88
2023-01-08T04:39:51.948Z,10.25
2023-01-08T04:42:18.662Z,11.48
2023-01-08T04:44:45.387Z,10.20
2023-01-08T04:47:12.245Z,9.48
2023-01-08T04:49:39.044Z,10.25
2023-01-08T04:52:05.868Z,9.75
2023-01-08T04:54:32.852Z,9.48
2023-01-08T04:56:59.613Z,9.77
2023-01-08T04:59:30.354Z,9.60
2023-01-08T05:01:59.620Z,9.25
2023-01-08T05:04:32.609Z,9.70
2023-01-08T05:07:05.367Z,9.02
2023-01-08T05:12:13.087Z,7.63
2023-01-08T05:14:40.011Z,8.05
2023-01-08T05:17:06.948Z,8.32
2023-01-08T05:19:34.088Z,8.70
2023-01-08T05:22:01.019Z,8.68
2023-01-08T05:24:27.955Z,9.18
2023-01-08T05:26:54.830Z,8.93
2023-01-08T05:29:21.818Z,7.93
2023-01-08T05:31:49.360Z,9.60
2023-01-08T05:34:16.489Z,9.02
2023-01-08T05:36:45.798Z,8.35
2023-01-08T05:39:12.648Z,9.38
2023-01-08T05:41:39.817Z,9.25
2023-01-08T05:44:06.792Z,9.27
2023-01-08T05:46:33.786Z,9.55
2023-01-08T05:49:09.689Z,9.77
2023-01-08T05:51:36.517Z,9.05
2023-01-08T05:54:06.535Z,8.88
2023-01-08T05:56:33.633Z,9.52
2023-01-08T05:59:01.790Z,9.32
2023-01-08T06:01:28.672Z,9.98
2023-01-08T06:03:56.881Z,9.55
2023-01-08T06:06:23.717Z,10.07
2023-01-08T06:08:50.545Z,9.88
2023-01-08T06:11:17.716Z,9.07
2023-01-08T06:13:44.857Z,10.52
2023-01-08T06:16:12.970Z,10.82
2023-01-08T06:18:40.184Z,9.98
2023-01-08T06:21:07.151Z,12.02
2023-01-08T06:23:36.323Z,11.05
2023-01-08T06:26:09.071Z,10.48
2023-01-08T06:28:36.093Z,10.02
2023-01-08T06:31:04.149Z,11.73
2023-01-08T06:33:31.980Z,12.98
2023-01-08T06:36:04.668Z,12.98
2023-01-08T06:38:34.326Z,12.85
2023-01-08T06:41:07.927Z,12.57
2023-01-08T06:43:36.511Z,19.60
2023-01-08T06:46:08.294Z,19.33
2023-01-08T06:48:38.265Z,16.65
2023-01-08T07:00:32.526Z,13.80
2023-01-08T07:03:00.028Z,14.50
2023-01-08T07:05:26.887Z,12.48
2023-01-08T07:07:54.110Z,15.00
2023-01-08T07:10:21.170Z,16.92
2023-01-08T07:12:48.714Z,16.73
2023-01-08T07:15:16.364Z,15.40
2023-01-08T07:17:43.134Z,16.27
2023-01-08T07:20:11.028Z,16.48
2023-01-08T07:22:37.873Z,16.75
2023-01-08T07:25:05.383Z,17.58
2023-01-08T07:27:32.105Z,16.95
2023-01-08T07:29:59.448Z,17.20
2023-01-08T07:32:38.306Z,17.80
2023-01-08T07:35:44.370Z,17.55
2023-01-08T07:39:18.741Z,19.45
2023-01-08T07:41:45.899Z,19.85
2023-01-08T07:44:20.565Z,20.08
2023-01-08T07:47:13.093Z,21.17
2023-01-08T07:49:39.918Z,20.33
2023-01-08T08:09:17.366Z,22.75
2023-01-08T08:11:44.160Z,22.08
2023-01-08T08:14:10.823Z,22.30
2023-01-08T08:16:48.274Z,21.45
2023-01-08T08:19:21.157Z,22.88
2023-01-08T08:24:56.850Z,25.75
2023-01-08T08:27:24.984Z,26.20
2023-01-08T08:29:51.799Z,28.98
2023-01-08T08:32:18.598Z,26.38
2023-01-08T08:34:45.613Z,29.67
2023-01-08T08:37:12.447Z,28.08
2023-01-08T08:39:42.459Z,27.17
2023-01-08T08:42:14.927Z,27.13
2023-01-08T08:45:20.027Z,28.85
2023-01-08T08:47:49.877Z,26.08
2023-01-08T08:50:19.932Z,26.90
2023-01-08T08:52:59.264Z,26.60
2023-01-08T08:55:28.508Z,23.65
2023-01-08T08:57:55.311Z,28.58
2023-01-08T09:00:22.174Z,30.63
2023-01-08T09:02:51.254Z,32.08
2023-01-08T09:05:18.448Z,33.20
2023-01-08T09:07:45.725Z,34.53
2023-01-08T09:10:12.576Z,31.88
2023-01-08T09:12:39.503Z,29.02
2023-01-08T09:15:07.090Z,32.67
2023-01-08T09:17:34.245Z,33.22
2023-01-08T09:20:01.027Z,30.80
2023-01-08T09:22:28.128Z,28.73
2023-01-08T09:24:57.162Z,28.58
2023-01-08T09:27:23.927Z,28.45
2023-01-08T09:29:53.943Z,25.48
2023-01-08T09:32:20.893Z,27.92
2023-01-08T09:34:47.591Z,27.58
2023-01-08T09:37:14.437Z,25.10
2023-01-08T09:39:42.575Z,26.00
2023-01-08T09:42:13.708Z,28.45
2023-01-08T09:44:44.086Z,30.98
2023-01-08T09:47:32.140Z,26.45
2023-01-08T09:50:03.334Z,28.00
2023-01-08T09:52:31.511Z,27.85
2023-01-08T09:54:58.800Z,27.33
2023-01-08T09:57:25.798Z,24.42
2023-01-08T09:59:52.605Z,29.20
2023-01-08T10:02:25.913Z,26.60
2023-01-08T10:04:58.848Z,27.42
2023-01-08T10:07:27.936Z,26.52
2023-01-08T10:09:56.027Z,31.00
2023-01-08T10:12:34.219Z,27.40
2023-01-08T10:15:08.598Z,28.48
2023-01-08T10:17:39.856Z,26.63
2023-01-08T10:20:17.330Z,28.85
2023-01-08T10:22:45.025Z,30.02
2023-01-08T10:25:15.499Z,25.10
2023-01-08T10:30:43.240Z,25.65
2023-01-08T10:33:39.009Z,23.73
2023-01-08T10:36:12.689Z,24.30
2023-01-08T10:38:51.693Z,22.42
2023-01-08T10:41:19.735Z,22.77
2023-01-08T10:43:53.953Z,21.98
2023-01-08T10:46:29.888Z,24.88
2023-01-08T10:49:01.934Z,23.17
2023-01-08T10:51:38.303Z,23.52
2023-01-08T10:54:26.432Z,22.00
2023-01-08T10:57:10.876Z,20.77
2023-01-08T10:59:41.115Z,20.13
2023-01-08T11:02:38.971Z,19.17
2023-01-08T11:05:08.093Z,18.23
2023-01-08T11:07:40.851Z,17.15
2023-01-08T11:10:23.859Z,18.05
2023-01-08T11:13:05.716Z,14.98
2023-01-08T11:15:43.907Z,15.15
2023-01-08T11:18:21.316Z,12.57
2023-01-08T11:21:05.162Z,17.33
2023-01-08T11:23:37.412Z,12.60
2023-01-08T11:26:10.675Z,12.98
2023-01-08T11:28:48.131Z,10.27
2023-01-08T11:31:22.856Z,13.00
2023-01-08T11:33:59.055Z,11.40
2023-01-08T11:36:36.313Z,11.98
2023-01-08T11:39:03.366Z,12.18
2023-01-08T12:39:05.059Z,10.32
2023-01-08T12:41:40.310Z,11.25
2023-01-08T15:37:15.819Z,18.13
2023-01-08T16:29:38.908Z,12.80
2023-01-08T16:32:18.930Z,11.80
2023-01-08T16:40:10.184Z,12.75
2023-01-08T16:42:39.370Z,13.45
2023-01-08T16:45:08.009Z,13.23
2023-01-08T16:47:39.690Z,13.23
2023-01-08T16:50:08.844Z,13.80
2023-01-08T16:52:44.945Z,12.05
2023-01-08T16:55:11.841Z,10.50
2023-01-08T17:00:25.128Z,11.63
2023-01-08T17:02:55.230Z,9.68
2023-01-08T17:05:40.288Z,10.02
2023-01-08T17:13:54.880Z,11.38
2023-01-08T17:16:21.729Z,10.75
2023-01-08T17:18:50.964Z,11.77
2023-01-08T17:21:20.952Z,9.40
2023-01-08T17:23:48.487Z,8.35
2023-01-08T17:26:21.641Z,7.20
2023-01-08T17:29:03.473Z,20.05
2023-01-08T17:31:56.366Z,23.17
2023-01-08T17:34:23.489Z,16.88
2023-01-08T17:36:50.926Z,11.90
2023-01-08T17:39:19.098Z,22.83
2023-01-08T17:42:22.646Z,21.30
2023-01-08T17:44:49.425Z,13.20
2023-01-08T17:47:16.907Z,13.93
2023-01-08T17:49:45.080Z,15.50
2023-01-08T17:52:16.196Z,16.33
2023-01-08T17:54:43.008Z,12.93
2023-01-08T17:57:09.939Z,13.05
2023-01-08T17:59:40.061Z,14.10
2023-01-08T18:02:07.325Z,14.60
2023-01-08T18:04:34.460Z,17.15
2023-01-08T18:07:04.394Z,17.05
2023-01-08T18:09:31.527Z,16.10
2023-01-08T18:11:58.645Z,19.45
2023-01-08T18:14:28.979Z,27.38
2023-01-08T18:17:00.104Z,18.65
2023-01-08T18:19:29.742Z,16.38
2023-01-08T18:21:56.830Z,22.88
2023-01-08T18:24:37.288Z,21.17
2023-01-08T18:27:04.249Z,24.35
2023-01-08T18:29:37.354Z,23.13
2023-01-08T18:32:04.525Z,22.85
2023-01-08T18:34:31.413Z,26.73
2023-01-08T18:36:58.468Z,24.15
2023-01-08T18:39:27.534Z,21.98
2023-01-08T18:42:14.422Z,23.83
2023-01-08T18:44:41.242Z,23.73
2023-01-08T18:47:08.787Z,25.27
2023-01-08T18:49:35.757Z,23.35
2023-01-08T18:52:03.090Z,24.38
2023-01-08T18:54:29.988Z,22.45
2023-01-08T18:56:59.256Z,22.45
2023-01-08T18:59:26.093Z,24.35
2023-01-08T19:02:06.215Z,22.40
2023-01-08T19:04:36.501Z,26.13
2023-01-08T19:07:06.491Z,29.80
2023-01-08T19:09:33.278Z,27.73
2023-01-08T19:12:06.035Z,23.98
2023-01-08T19:14:33.053Z,22.17
2023-01-08T19:17:00.093Z,24.27
2023-01-08T19:19:28.728Z,17.27
2023-01-08T19:22:08.992Z,25.80
2023-01-08T19:24:37.468Z,22.30
2023-01-08T19:27:04.411Z,21.33
2023-01-08T19:29:49.469Z,19.67
2023-01-08T19:32:16.213Z,21.65
2023-01-08T19:34:44.868Z,27.17
2023-01-08T19:37:12.117Z,22.88
2023-01-08T19:39:47.579Z,20.60
2023-01-08T19:42:32.951Z,24.08
2023-01-08T19:44:59.926Z,21.10
2023-01-08T19:47:27.000Z,17.80
2023-01-08T19:49:54.058Z,19.50
2023-01-08T19:52:23.724Z,20.88
2023-01-08T19:54:55.289Z,14.27
2023-01-08T19:57:25.092Z,17.85
2023-01-08T19:59:52.053Z,18.67
2023-01-08T20:02:19.634Z,20.25
2023-01-08T20:04:46.521Z,20.70
2023-01-08T20:07:14.339Z,20.20
2023-01-08T20:09:42.589Z,15.20
2023-01-08T20:12:10.798Z,15.45
2023-01-08T20:14:37.907Z,17.83
2023-01-08T20:17:04.641Z,19.77
2023-01-08T20:19:31.682Z,20.90
2023-01-08T20:21:59.472Z,20.52
2023-01-08T20:24:26.289Z,17.98
2023-01-08T20:26:53.354Z,19.48
2023-01-08T20:29:20.251Z,23.50
2023-01-08T20:31:50.935Z,25.42
2023-01-08T20:34:17.804Z,21.80
2023-01-08T20:36:45.682Z,24.25
2023-01-08T20:39:39.617Z,23.10
2023-01-08T20:42:07.230Z,27.98
2023-01-08T20:44:34.108Z,35.70
2023-01-08T20:47:05.008Z,32.35
2023-01-08T20:49:48.201Z,31.85
2023-01-08T20:52:16.599Z,32.28
2023-01-08T20:54:43.530Z,30.50
2023-01-08T20:57:10.925Z,28.83
2023-01-08T20:59:37.827Z,28.50
2023-01-08T21:02:05.149Z,27.17
2023-01-08T21:04:32.272Z,24.67
2023-01-08T21:06:59.239Z,23.10
2023-01-08T21:09:26.261Z,24.88
2023-01-08T21:11:53.388Z,23.90
2023-01-08T21:14:20.440Z,25.48
2023-01-08T21:16:47.503Z,20.38
2023-01-08T21:19:15.385Z,24.15
2023-01-08T21:21:42.557Z,19.17
2023-01-08T21:24:14.914Z,13.40
2023-01-08T21:26:41.948Z,15.57
2023-01-08T21:29:10.835Z,17.30
2023-01-08T21:31:40.816Z,16.00
2023-01-08T21:34:09.143Z,17.95
2023-01-08T21:36:36.359Z,18.42
2023-01-08T21:39:06.777Z,20.52
2023-01-08T21:41:52.155Z,19.23
2023-01-08T21:44:40.256Z,18.35
2023-01-08T21:47:09.828Z,18.45
2023-01-08T21:49:36.879Z,19.88
2023-01-08T21:52:23.377Z,22.95
2023-01-08T21:54:54.227Z,19.77
2023-01-08T21:57:24.627Z,13.00
2023-01-08T21:59:57.342Z,18.23
2023-01-08T22:02:25.499Z,21.00
2023-01-08T22:04:55.755Z,19.75
2023-01-08T22:07:24.386Z,18.83
2023-01-08T22:09:54.976Z,19.40
2023-01-08T22:12:23.117Z,19.95
2023-01-08T22:14:52.633Z,19.90
2023-01-08T22:17:20.683Z,22.08
2023-01-08T22:19:47.699Z,21.25
2023-01-08T22:22:14.527Z,20.60
2023-01-08T22:24:41.646Z,20.67
2023-01-08T22:27:09.659Z,19.58
2023-01-08T22:29:38.802Z,20.60
2023-01-08T22:32:05.979Z,18.50
2023-01-08T22:34:35.039Z,19.83
2023-01-08T22:37:02.400Z,20.33
2023-01-08T22:39:29.736Z,18.92
2023-01-08T22:41:57.053Z,18.50
2023-01-08T22:44:23.979Z,18.92
2023-01-08T22:46:50.910Z,18.42
2023-01-08T22:49:17.888Z,20.52
2023-01-08T22:51:44.841Z,21.48
2023-01-08T22:54:17.276Z,22.23
2023-01-08T22:56:44.250Z,19.88
2023-01-08T22:59:11.094Z,19.35
2023-01-08T23:01:37.996Z,20.45
2023-01-08T23:04:05.137Z,19.35
2023-01-08T23:06:32.938Z,20.15
2023-01-08T23:09:00.652Z,19.35
2023-01-08T23:11:28.363Z,18.70
2023-01-08T23:13:57.523Z,21.55
2023-01-08T23:16:25.627Z,22.83
2023-01-08T23:18:54.977Z,23.35
2023-01-08T23:21:23.994Z,22.20
2023-01-08T23:23:54.251Z,21.30
2023-01-08T23:26:24.300Z,18.83
2023-01-08T23:28:52.286Z,21.33
2023-01-08T23:31:23.229Z,21.45
2023-01-08T23:33:51.064Z,19.95
2023-01-08T23:36:21.192Z,21.95
2023-01-08T23:38:56.477Z,20.92
2023-01-08T23:41:34.578Z,19.05
2023-01-08T23:44:05.464Z,15.95
2023-01-08T23:46:32.328Z,16.85
2023-01-08T23:48:59.473Z,14.48
2023-01-08T23:51:26.389Z,15.88
2023-01-08T23:53:53.238Z,16.27
2023-01-08T23:56:21.158Z,14.80
2023-01-08T23:58:49.472Z,14.27
